Time;durP1;ratioP1;P1;durP2;ratioP2;P2;SDS_P1;SDS_P2;PMS_P1;PMS_P2;Temp;Humidity;BMP_temperature;BMP_pressure;BME280_temperature;BME280_humidity;BME280_pressure;Samples;Min_cycle;Max_cycle;Signal;HPM_P1;HPM_P2
2021/11/12 00:04:26;;;;;;;36.03;20.97;;;;;;;;;;5104835;28;20460;-92
2021/11/12 00:12:26;;;;;;;27.70;20.50;;;;;;;;;;5105315;28;20538;-92
2021/11/12 00:14:56;;;;;;;36.00;22.57;;;;;;;;;;5102030;28;20534;-92
2021/11/12 00:17:26;;;;;;;35.57;22.50;;;0.60;99.90;;;;;;5108406;28;20479;-92
2021/11/12 00:19:54;;;;;;;31.93;20.70;;;;;;;;;;5107382;28;20455;-92
2021/11/12 00:22:22;;;;;;;32.00;21.50;;;;;;;;;;5102555;28;20448;-92
2021/11/12 00:24:50;;;;;;;31.43;20.97;;;;;;;;;;5104525;28;20501;-92
2021/11/12 00:27:17;;;;;;;31.67;20.70;;;;;;;;;;5105455;28;20494;-92
2021/11/12 00:29:47;;;;;;;34.90;21.50;;;;;;;;;;5105214;28;20968;-94
2021/11/12 00:32:29;;;;;;;32.83;20.37;;;;;;;;;;5102463;28;20469;-91
2021/11/12 00:35:03;;;;;;;30.50;20.77;;;;;;;;;;5105188;28;20452;-93
2021/11/12 00:37:45;;;;;;;38.67;22.33;;;;;;;;;;5104878;28;20494;-91
2021/11/12 00:40:16;;;;;;;31.73;21.30;;;0.60;99.90;;;;;;5104933;28;20459;-92
2021/11/12 00:42:53;;;;;;;33.67;21.90;;;;;;;;;;5102206;28;20467;-93
2021/11/12 00:45:23;;;;;;;31.90;20.30;;;;;;;;;;5103820;28;20448;-92
2021/11/12 00:47:55;;;;;;;29.87;20.87;;;0.60;99.90;;;;;;5108834;22;20504;-91
2021/11/12 00:56:08;;;;;;;34.57;20.47;;;;;;;;;;5042253;28;20490;-91
2021/11/12 00:58:36;;;;;;;29.93;20.47;;;;;;;;;;5041857;28;20456;-92
2021/11/12 01:01:04;;;;;;;36.00;20.73;;;;;;;;;;5070516;28;20800;-91
2021/11/12 01:03:33;;;;;;;32.77;20.13;;;;;;;;;;5104519;28;20960;-91
2021/11/12 01:06:00;;;;;;;37.20;20.70;;;;;;;;;;5101514;28;20477;-92
2021/11/12 01:08:28;;;;;;;29.53;19.53;;;;;;;;;;5100569;28;20492;-92
2021/11/12 01:10:58;;;;;;;31.37;20.67;;;;;;;;;;5109105;28;20456;-91
2021/11/12 01:13:27;;;;;;;29.37;19.97;;;0.50;99.90;;;;;;5141003;22;20492;-92
2021/11/12 01:15:54;;;;;;;32.80;20.20;;;;;;;;;;5105871;28;20457;-93
2021/11/12 01:18:21;;;;;;;33.80;20.53;;;;;;;;;;5114055;22;20497;-93
2021/11/12 01:20:50;;;;;;;33.60;20.97;;;;;;;;;;5101719;28;20463;-94
2021/11/12 01:23:18;;;;;;;34.90;20.90;;;;;;;;;;5105064;28;20465;-93
2021/11/12 01:25:45;;;;;;;32.00;21.23;;;;;;;;;;5104844;28;20457;-92
2021/11/12 01:28:14;;;;;;;30.57;19.43;;;;;;;;;;5109399;28;20535;-93
2021/11/12 01:30:44;;;;;;;33.90;21.10;;;;;;;;;;5103926;28;20429;-93
2021/11/12 01:33:11;;;;;;;30.37;21.03;;;;;;;;;;5108697;28;20447;-93
2021/11/12 01:35:39;;;;;;;34.50;21.60;;;;;;;;;;5108909;28;20546;-93
2021/11/12 01:38:11;;;;;;;34.00;22.40;;;;;;;;;;5109504;28;20428;-92
2021/11/12 01:40:38;;;;;;;32.70;20.63;;;;;;;;;;5115893;22;20488;-93
2021/11/12 01:43:10;;;;;;;38.47;22.30;;;0.30;99.90;;;;;;5108550;28;20440;-92
2021/11/12 01:48:38;;;;;;;39.10;22.77;;;0.30;99.90;;;;;;5119955;28;20479;-94
2021/11/12 01:51:09;;;;;;;38.70;22.57;;;;;;;;;;5111774;28;20454;-93
2021/11/12 01:53:45;;;;;;;39.93;22.07;;;0.30;99.90;;;;;;5101901;28;20539;-92
2021/11/12 02:01:50;;;;;;;36.40;22.20;;;0.30;99.90;;;;;;5102550;28;20474;-93
2021/11/12 02:04:20;;;;;;;35.97;21.73;;;0.30;99.90;;;;;;5101965;28;20954;-93
2021/11/12 02:06:48;;;;;;;35.03;21.13;;;;;;;;;;5103861;28;20448;-92
2021/11/12 02:09:19;;;;;;;34.67;22.43;;;0.20;99.90;;;;;;5108526;28;20523;-92
2021/11/12 02:11:54;;;;;;;31.27;21.33;;;0.20;99.90;;;;;;5111791;22;20553;-94
2021/11/12 02:14:21;;;;;;;35.10;21.53;;;;;;;;;;5100994;28;20477;-93
2021/11/12 02:16:58;;;;;;;34.80;21.83;;;0.10;99.90;;;;;;5102757;28;20495;-94
2021/11/12 02:19:28;;;;;;;39.00;22.87;;;;;;;;;;5122516;22;20485;-93
2021/11/12 02:22:04;;;;;;;34.60;22.00;;;;;;;;;;5107036;28;20437;-92
2021/11/12 02:24:40;;;;;;;33.43;20.97;;;;;;;;;;5108051;28;20487;-93
2021/11/12 02:27:13;;;;;;;32.10;20.97;;;;;;;;;;5109064;28;20479;-91
2021/11/12 02:29:45;;;;;;;32.00;20.40;;;0.10;99.90;;;;;;5109173;28;20491;-93
2021/11/12 02:32:22;;;;;;;35.97;22.53;;;0.10;99.90;;;;;;5109235;28;20500;-91
2021/11/12 02:34:51;;;;;;;35.37;21.90;;;;;;;;;;5103004;28;20469;-92
2021/11/12 02:37:22;;;;;;;34.17;21.93;;;0.10;99.90;;;;;;5103248;28;20463;-93
2021/11/12 02:39:50;;;;;;;33.37;20.57;;;;;;;;;;5105750;28;20473;-93
2021/11/12 02:42:18;;;;;;;43.27;23.20;;;;;;;;;;5101206;28;20453;-93
2021/11/12 02:44:49;;;;;;;35.37;20.97;;;0.20;99.90;;;;;;5103973;28;20440;-93
2021/11/12 02:47:20;;;;;;;33.20;21.27;;;0.10;99.90;;;;;;5104454;28;20836;-91
2021/11/12 02:49:47;;;;;;;35.50;22.03;;;0.10;99.90;;;;;;5105511;28;20474;-91
2021/11/12 02:52:18;;;;;;;32.73;20.83;;;0.10;99.90;;;;;;5105445;28;20459;-93
2021/11/12 02:54:48;;;;;;;36.37;21.87;;;0.10;99.90;;;;;;5104710;28;20447;-91
2021/11/12 02:57:16;;;;;;;34.43;21.30;;;;;;;;;;5106787;28;20440;-92
2021/11/12 02:59:46;;;;;;;41.10;23.53;;;;;;;;;;5101419;28;20512;-91
2021/11/12 03:02:14;;;;;;;38.97;22.57;;;;;;;;;;5102465;28;20472;-93
2021/11/12 03:04:42;;;;;;;34.87;20.60;;;;;;;;;;5105157;28;20919;-91
2021/11/12 03:07:09;;;;;;;41.00;20.80;;;;;;;;;;5102691;28;20843;-92
2021/11/12 03:09:36;;;;;;;36.00;22.40;;;;;;;;;;5107613;28;20447;-90
2021/11/12 03:12:06;;;;;;;38.37;22.90;;;0.00;99.90;;;;;;5112105;28;20496;-92
2021/11/12 03:14:34;;;;;;;32.17;22.00;;;;;;;;;;5104419;28;20451;-92
2021/11/12 03:17:04;;;;;;;36.00;23.07;;;;;;;;;;5099419;28;20457;-92
2021/11/12 03:19:35;;;;;;;36.77;21.60;;;0.00;99.90;;;;;;5103085;28;20475;-93
2021/11/12 03:22:04;;;;;;;39.37;24.13;;;;;;;;;;5100943;28;20441;-94
2021/11/12 03:24:35;;;;;;;37.10;21.50;;;;;;;;;;5101277;28;20535;-92
2021/11/12 03:27:15;;;;;;;33.87;21.30;;;;;;;;;;5100154;28;20531;-92
2021/11/12 03:30:07;;;;;;;31.37;19.23;;;;;;;;;;5101454;28;20459;-93
2021/11/12 04:00:25;;;;;;;35.37;20.47;;;;;;;;;;5104193;28;20504;-93
2021/11/12 04:03:06;;;;;;;39.03;22.97;;;;;;;;;;5101034;28;20826;-91
2021/11/12 04:49:55;;;;;;;29.30;18.83;;;;;;;;;;5101974;28;20447;-91
2021/11/12 05:26:33;;;;;;;31.47;19.70;;;;;;;;;;5106713;28;20436;-92
2021/11/12 05:34:40;;;;;;;27.37;18.90;;;;;;;;;;5105824;28;20471;-92
2021/11/12 05:45:44;;;;;;;34.33;19.80;;;;;;;;;;5107267;28;20452;-92
2021/11/12 05:56:27;;;;;;;30.30;16.77;;;;;;;;;;5108410;28;20458;-92
2021/11/12 05:58:54;;;;;;;31.27;20.27;;;;;;;;;;5108632;28;20449;-93
2021/11/12 06:01:23;;;;;;;32.10;19.47;;;;;;;;;;5105484;28;20459;-93
2021/11/12 06:03:50;;;;;;;27.07;17.63;;;;;;;;;;5104017;28;20449;-92
2021/11/12 06:06:18;;;;;;;28.33;18.50;;;;;;;;;;5104222;28;20460;-93
2021/11/12 06:08:45;;;;;;;31.90;19.57;;;;;;;;;;5106667;28;20499;-93
2021/11/12 06:11:13;;;;;;;29.00;17.90;;;;;;;;;;5111400;28;20437;-93
2021/11/12 06:13:42;;;;;;;28.83;18.17;;;;;;;;;;5101376;28;20466;-92
2021/11/12 06:16:10;;;;;;;28.07;17.70;;;-0.60;99.90;;;;;;5098896;28;20452;-93
2021/11/12 06:18:37;;;;;;;26.63;17.83;;;;;;;;;;5098549;28;20521;-93
2021/11/12 06:21:29;;;;;;;36.23;20.13;;;;;;;;;;5126307;22;20405;-94
2021/11/12 06:23:56;;;;;;;31.10;18.93;;;;;;;;;;5108795;28;21002;-92
2021/11/12 06:26:25;;;;;;;31.07;19.17;;;-0.50;99.90;;;;;;5106232;28;20454;-93
2021/11/12 06:28:55;;;;;;;27.90;19.10;;;;;;;;;;5102116;28;20490;-93
2021/11/12 06:31:22;;;;;;;25.90;18.20;;;;;;;;;;5105390;28;20544;-93
2021/11/12 06:33:49;;;;;;;34.50;19.97;;;;;;;;;;5099285;28;20456;-92
2021/11/12 06:36:17;;;;;;;33.97;19.83;;;;;;;;;;5099232;28;20469;-93
2021/11/12 06:38:45;;;;;;;29.10;19.30;;;;;;;;;;5101270;28;20454;-92
2021/11/12 06:41:14;;;;;;;30.90;20.30;;;;;;;;;;5099476;28;20455;-92
2021/11/12 06:43:51;;;;;;;27.00;19.20;;;-0.10;99.90;;;;;;5099140;28;20844;-92
2021/11/12 06:51:58;;;;;;;29.17;19.57;;;0.10;99.90;;;;;;5101073;28;20494;-93
2021/11/12 06:54:25;;;;;;;46.60;21.47;;;;;;;;;;5114824;28;20443;-92
2021/11/12 06:56:53;;;;;;;44.50;21.83;;;;;;;;;;5112458;28;20546;-93
2021/11/12 06:59:20;;;;;;;86.53;25.63;;;;;;;;;;5099795;28;20453;-93
2021/11/12 07:01:49;;;;;;;53.57;22.67;;;;;;;;;;5100187;28;20482;-92
2021/11/12 07:04:16;;;;;;;92.00;27.27;;;;;;;;;;5101671;28;20455;-91
2021/11/12 07:06:43;;;;;;;67.27;25.30;;;;;;;;;;5102735;28;20515;-92
2021/11/12 07:09:11;;;;;;;70.10;24.30;;;;;;;;;;5099906;28;20474;-93
2021/11/12 07:11:39;;;;;;;84.33;27.20;;;;;;;;;;5102556;28;20441;-92
2021/11/12 07:14:06;;;;;;;74.70;24.00;;;;;;;;;;5096129;28;20482;-93
2021/11/12 07:16:33;;;;;;;57.73;25.53;;;;;;;;;;5097125;28;20469;-94
2021/11/12 07:19:02;;;;;;;66.20;25.20;;;0.60;99.90;;;;;;5097771;28;20506;-94
2021/11/12 07:21:30;;;;;;;88.87;25.73;;;;;;;;;;5095871;28;20480;-93
2021/11/12 07:23:57;;;;;;;147.20;26.63;;;;;;;;;;5099858;28;20455;-91
2021/11/12 07:26:24;;;;;;;153.83;29.07;;;;;;;;;;5092671;28;20449;-92
2021/11/12 07:28:52;;;;;;;119.87;26.77;;;;;;;;;;5094844;28;21337;-92
2021/11/12 07:31:20;;;;;;;119.53;27.20;;;0.80;99.90;;;;;;5106336;22;20576;-93
2021/11/12 07:33:48;;;;;;;110.73;27.33;;;0.90;99.90;;;;;;5099667;28;20814;-92
2021/11/12 07:36:20;;;;;;;76.27;27.33;;;;;;;;;;5095843;28;21008;-92
2021/11/12 07:38:50;;;;;;;56.77;25.53;;;;;;;;;;5094393;28;20441;-92
2021/11/12 07:46:46;;;;;;;81.10;28.03;;;;;;;;;;5074724;28;20442;-93
2021/11/12 07:49:14;;;;;;;51.90;27.27;;;1.20;99.90;;;;;;5091474;28;20493;-93
2021/11/12 07:51:44;;;;;;;59.87;25.70;;;;;;;;;;5090015;28;20479;-92
2021/11/12 07:54:12;;;;;;;66.73;24.77;;;;;;;;;;5094449;28;20512;-94
2021/11/12 07:56:39;;;;;;;47.83;26.97;;;;;;;;;;5091950;28;20452;-91
2021/11/12 07:59:07;;;;;;;51.33;25.37;;;1.50;99.90;;;;;;5101543;28;20457;-92
2021/11/12 08:01:34;;;;;;;55.53;28.30;;;;;;;;;;5099161;28;20459;-91
2021/11/12 08:04:03;;;;;;;57.97;27.77;;;;;;;;;;5100790;28;20471;-92
2021/11/12 08:06:32;;;;;;;56.60;26.53;;;;;;;;;;5098598;28;20470;-91
2021/11/12 08:09:03;;;;;;;48.77;27.40;;;1.90;99.90;;;;;;5102117;28;20473;-91
2021/11/12 08:11:34;;;;;;;71.07;27.23;;;;;;;;;;5104828;28;20447;-91
2021/11/12 08:14:11;;;;;;;54.17;25.70;;;;;;;;;;5100812;28;20445;-92
2021/11/12 08:16:59;;;;;;;58.87;24.17;;;;;;;;;;5100746;28;20467;-91
2021/11/12 08:19:29;;;;;;;44.93;26.47;;;;;;;;;;5102484;28;20451;-92
2021/11/12 08:22:03;;;;;;;45.10;24.03;;;2.50;99.90;;;;;;5111375;22;20472;-91
2021/11/12 08:24:40;;;;;;;40.00;23.73;;;;;;;;;;5104262;28;20448;-91
2021/11/12 08:27:25;;;;;;;48.33;24.00;;;;;;;;;;5100568;28;20474;-92
2021/11/12 08:29:59;;;;;;;40.13;22.90;;;;;;;;;;5100766;28;20812;-90
2021/11/12 08:35:14;;;;;;;31.60;20.47;;;3.40;99.90;;;;;;5094290;28;20445;-91
2021/11/12 08:37:48;;;;;;;29.57;21.20;;;;;;;;;;5105308;28;20547;-90
2021/11/12 08:40:23;;;;;;;30.00;20.73;;;3.90;99.90;;;;;;5108560;28;20797;-91
2021/11/12 08:42:53;;;;;;;36.37;21.73;;;;;;;;;;5104924;28;20486;-91
2021/11/12 08:45:21;;;;;;;31.13;21.07;;;;;;;;;;5103456;28;20491;-92
2021/11/12 08:47:51;;;;;;;28.60;20.23;;;;;;;;;;5106463;28;20501;-91
2021/11/12 08:50:20;;;;;;;33.67;20.80;;;;;;;;;;5103430;28;20892;-92
2021/11/12 08:52:48;;;;;;;31.10;20.30;;;5.70;99.90;;;;;;5117135;28;20434;-94
2021/11/12 08:55:23;;;;;;;28.70;21.63;;;;;;;;;;5112671;28;20428;-92
2021/11/12 08:57:50;;;;;;;23.43;17.43;;;;;;;;;;5110662;28;20504;-94
2021/11/12 09:00:17;;;;;;;25.40;20.13;;;;;;;;;;5112351;28;20460;-95
2021/11/12 09:02:45;;;;;;;25.37;18.90;;;;;;;;;;5113129;28;20435;-94
2021/11/12 09:05:13;;;;;;;27.07;20.07;;;;;;;;;;5112341;28;20452;-92
2021/11/12 09:07:40;;;;;;;29.33;19.20;;;;;;;;;;5112261;28;20470;-95
2021/11/12 09:10:08;;;;;;;28.20;18.00;;;;;;;;;;5115221;28;20897;-92
2021/11/12 09:12:36;;;;;;;40.33;19.07;;;9.80;99.90;;;;;;5113383;28;20438;-92
2021/11/12 09:15:11;;;;;;;34.90;20.50;;;;;;;;;;5100020;28;20963;-94
2021/11/12 09:17:44;;;;;;;36.67;21.07;;;;;;;;;;5102263;28;20455;-93
2021/11/12 09:20:12;;;;;;;24.63;20.20;;;9.90;99.90;;;;;;5100642;28;20468;-93
2021/11/12 09:22:39;;;;;;;31.20;19.97;;;;;;;;;;5102760;28;20487;-93
2021/11/12 09:25:07;;;;;;;29.83;19.70;;;11.30;99.90;;;;;;5113907;28;20431;-93
2021/11/12 09:27:34;;;;;;;32.90;19.67;;;;;;;;;;5115497;28;20434;-94
2021/11/12 09:30:04;;;;;;;25.40;18.67;;;11.00;99.90;;;;;;5115922;28;20487;-93
2021/11/12 09:32:31;;;;;;;28.10;19.13;;;;;;;;;;5114496;28;20454;-93
2021/11/12 09:34:59;;;;;;;25.73;20.10;;;;;;;;;;5113719;28;20950;-95
2021/11/12 09:37:26;;;;;;;25.33;19.97;;;;;;;;;;5114749;28;20444;-96
2021/11/12 09:39:55;;;;;;;26.30;20.20;;;10.20;99.90;;;;;;5113148;28;20449;-94
2021/11/12 09:42:22;;;;;;;26.20;20.83;;;10.40;99.90;;;;;;5107745;28;20459;-93
2021/11/12 09:44:50;;;;;;;22.40;20.10;;;;;;;;;;5103004;28;20452;-94
2021/11/12 09:47:24;;;;;;;22.80;19.20;;;;;;;;;;5109099;28;20455;-93
2021/11/12 09:49:51;;;;;;;27.20;20.33;;;10.60;99.90;;;;;;5109513;28;20487;-93
2021/11/12 09:52:19;;;;;;;27.80;21.53;;;;;;;;;;5109550;28;20448;-92
2021/11/12 09:54:46;;;;;;;23.73;21.20;;;;;;;;;;5108444;28;20464;-94
2021/11/12 09:57:14;;;;;;;24.07;21.37;;;10.70;99.90;;;;;;5105507;28;20458;-94
2021/11/12 09:59:41;;;;;;;24.53;20.50;;;;;;;;;;5109141;28;20480;-94
2021/11/12 10:02:11;;;;;;;24.63;21.40;;;;;;;;;;5107491;28;20452;-95
2021/11/12 10:04:39;;;;;;;24.73;22.07;;;10.90;99.90;;;;;;5104396;28;20456;-93
2021/11/12 10:07:11;;;;;;;24.30;20.90;;;11.00;99.90;;;;;;5108102;28;20459;-94
2021/11/12 10:09:39;;;;;;;25.63;21.93;;;;;;;;;;5102700;28;20486;-93
2021/11/12 10:12:09;;;;;;;23.43;20.97;;;10.70;99.90;;;;;;5106847;28;20482;-94
2021/11/12 10:14:40;;;;;;;22.57;20.17;;;11.30;99.90;;;;;;5104314;28;20830;-94
2021/11/12 10:17:09;;;;;;;23.40;19.50;;;10.50;99.90;;;;;;5109157;28;20460;-93
2021/11/12 10:19:45;;;;;;;22.03;19.73;;;9.80;99.90;;;;;;5103905;28;20988;-94
2021/11/12 10:22:12;;;;;;;25.00;20.13;;;;;;;;;;5109932;28;20533;-92
2021/11/12 10:24:43;;;;;;;23.57;20.77;;;10.50;99.90;;;;;;5108751;28;20451;-93
2021/11/12 10:27:13;;;;;;;22.07;19.53;;;10.30;99.90;;;;;;5103131;28;20469;-95
2021/11/12 10:29:45;;;;;;;23.00;20.60;;;10.70;99.90;;;;;;5104691;28;20484;-93
2021/11/12 10:32:17;;;;;;;23.77;21.27;;;10.70;99.90;;;;;;5111631;28;20440;-95
2021/11/12 10:34:48;;;;;;;24.63;20.93;;;11.30;99.90;;;;;;5114531;22;20514;-93
2021/11/12 10:37:21;;;;;;;23.03;19.60;;;10.50;99.90;;;;;;5117355;22;20498;-93
2021/11/12 10:39:51;;;;;;;23.03;20.63;;;10.50;99.90;;;;;;5152838;22;20512;-95
2021/11/12 10:44:45;;;;;;;22.90;20.50;;;10.60;99.90;;;;;;5110294;22;20491;-93
2021/11/12 10:47:13;;;;;;;25.13;22.43;;;10.80;99.90;;;;;;5112185;28;20202;-92
2021/11/12 10:49:42;;;;;;;28.57;21.43;;;10.30;99.90;;;;;;5112368;28;20475;-93
2021/11/12 10:54:45;;;;;;;23.97;21.40;;;11.50;99.90;;;;;;5121768;22;20516;-93
2021/11/12 10:57:13;;;;;;;25.70;22.00;;;11.60;99.90;;;;;;5110697;28;20227;-93
2021/11/12 10:59:59;;;;;;;29.50;21.80;;;11.60;99.90;;;;;;5107196;28;20463;-95
2021/11/12 11:02:28;;;;;;;23.17;20.37;;;11.30;99.90;;;;;;5118627;22;20456;-93
2021/11/12 11:05:03;;;;;;;26.23;21.80;;;12.00;99.90;;;;;;5107590;28;20452;-93
2021/11/12 11:07:31;;;;;;;22.90;20.60;;;12.50;99.90;;;;;;5111146;28;20451;-93
2021/11/12 11:10:00;;;;;;;27.50;21.63;;;12.20;99.90;;;;;;5111065;28;20484;-92
2021/11/12 11:13:03;;;;;;;28.77;23.20;;;12.30;99.90;;;;;;5114562;22;20435;-93
2021/11/12 11:15:35;;;;;;;30.13;20.80;;;12.10;99.90;;;;;;5080839;22;20479;-93
2021/11/12 11:21:24;;;;;;;30.73;22.70;;;12.20;99.90;;;;;;5117210;22;20521;-92
2021/11/12 11:23:52;;;;;;;24.80;22.07;;;12.30;99.90;;;;;;5111253;28;20440;-95
2021/11/12 11:26:23;;;;;;;23.90;21.30;;;12.10;99.90;;;;;;5110199;22;20483;-94
2021/11/12 11:28:52;;;;;;;24.73;21.47;;;11.70;99.90;;;;;;5110197;28;20443;-92
2021/11/12 11:31:40;;;;;;;26.60;22.63;;;12.30;99.90;;;;;;5129001;22;20494;-91
2021/11/12 11:34:07;;;;;;;26.57;23.07;;;11.90;99.90;;;;;;5103881;22;20487;-92
2021/11/12 11:36:36;;;;;;;28.40;23.60;;;11.80;99.90;;;;;;5109715;28;20444;-92
2021/11/12 11:39:07;;;;;;;25.13;22.40;;;12.00;99.90;;;;;;5103970;28;21013;-92
2021/11/12 11:41:36;;;;;;;29.47;23.20;;;12.20;99.90;;;;;;5105981;28;20472;-93
2021/11/12 11:44:05;;;;;;;31.53;22.17;;;;;;;;;;5110505;28;20452;-91
2021/11/12 11:46:36;;;;;;;28.67;23.30;;;12.30;99.90;;;;;;5131090;22;20474;-93
2021/11/12 11:49:11;;;;;;;27.60;22.83;;;12.20;99.90;;;;;;5050162;28;20461;-92
2021/11/12 11:51:40;;;;;;;25.80;22.23;;;11.50;99.90;;;;;;5044234;28;20454;-92
2021/11/12 11:54:09;;;;;;;33.83;24.60;;;11.10;99.90;;;;;;5045871;28;20460;-92
2021/11/12 11:56:42;;;;;;;31.97;23.23;;;11.70;99.90;;;;;;5090480;22;20480;-92
2021/11/12 11:59:11;;;;;;;33.90;24.50;;;11.80;99.90;;;;;;5109808;28;20444;-93
2021/11/12 12:01:40;;;;;;;29.93;23.30;;;12.00;99.90;;;;;;5117218;22;20439;-93
2021/11/12 12:04:33;;;;;;;30.03;22.40;;;12.30;99.90;;;;;;5107262;28;20454;-91
2021/11/12 12:07:24;;;;;;;28.50;25.40;;;11.80;99.90;;;;;;5115248;22;20833;-91
2021/11/12 12:10:13;;;;;;;29.20;22.80;;;12.30;99.90;;;;;;5110146;28;20484;-91
2021/11/12 12:13:00;;;;;;;27.17;21.67;;;12.50;99.90;;;;;;5095371;28;20464;-95
2021/11/12 12:15:46;;;;;;;27.23;22.67;;;12.60;99.90;;;;;;5106062;28;20513;-93
2021/11/12 12:18:22;;;;;;;27.57;22.30;;;12.80;99.90;;;;;;5109525;28;20428;-93
2021/11/12 13:22:56;;;;;;;30.90;20.27;;;13.20;99.90;;;;;;5089249;28;20962;-90
2021/11/12 13:25:30;;;;;;;26.70;20.60;;;12.80;99.90;;;;;;5085580;28;20459;-95
2021/11/12 13:28:15;;;;;;;25.57;21.17;;;13.40;99.90;;;;;;5086858;28;20473;-91
2021/11/12 13:30:44;;;;;;;28.73;21.47;;;12.60;99.90;;;;;;5079619;28;20514;-92
2021/11/12 13:33:26;;;;;;;34.37;23.93;;;12.90;99.90;;;;;;5086835;28;20429;-92
2021/11/12 13:35:53;;;;;;;26.37;21.70;;;;;;;;;;5080095;28;20467;-92
2021/11/12 13:38:22;;;;;;;29.30;22.60;;;13.00;99.90;;;;;;5073556;28;20507;-91
2021/11/12 13:40:49;;;;;;;29.23;23.97;;;;;;;;;;5071091;28;20445;-94
2021/11/12 13:43:24;;;;;;;29.23;24.70;;;12.90;99.90;;;;;;5077135;28;20459;-94
2021/11/12 13:45:57;;;;;;;29.40;23.67;;;12.30;99.90;;;;;;5077341;28;20453;-92
2021/11/12 13:48:24;;;;;;;28.67;24.47;;;;;;;;;;5072952;28;20462;-90
2021/11/12 13:50:54;;;;;;;29.83;25.90;;;12.60;99.90;;;;;;5077456;28;20504;-92
2021/11/12 13:53:26;;;;;;;31.47;25.60;;;12.50;99.90;;;;;;5077799;28;20457;-90
2021/11/12 13:55:53;;;;;;;30.17;25.07;;;;;;;;;;5076198;28;20492;-91
2021/11/12 13:58:23;;;;;;;31.57;24.30;;;;;;;;;;5072738;28;20461;-92
2021/11/12 14:00:51;;;;;;;33.40;25.17;;;;;;;;;;5076426;28;20453;-93
2021/11/12 14:03:19;;;;;;;32.20;26.00;;;;;;;;;;5077346;28;20482;-94
2021/11/12 14:05:57;;;;;;;32.30;25.07;;;12.10;99.90;;;;;;5072746;28;20468;-94
2021/11/12 14:08:34;;;;;;;30.57;25.10;;;12.50;99.90;;;;;;5078385;28;20444;-91
2021/11/12 14:11:03;;;;;;;33.37;27.20;;;;;;;;;;5074378;28;20566;-92
2021/11/12 14:13:39;;;;;;;32.13;26.57;;;12.30;99.90;;;;;;5078676;28;20539;-91
2021/11/12 14:16:11;;;;;;;34.40;26.33;;;11.90;99.90;;;;;;5073254;28;20511;-92
2021/11/12 14:18:48;;;;;;;35.43;27.73;;;;;;;;;;5072882;28;20453;-93
2021/11/12 14:21:22;;;;;;;38.20;28.23;;;;;;;;;;5080261;28;20446;-92
2021/11/12 14:23:56;;;;;;;37.40;28.30;;;11.70;99.90;;;;;;5074875;28;20468;-91
2021/11/12 14:26:30;;;;;;;44.10;28.00;;;11.40;99.90;;;;;;5073939;28;20479;-93
2021/11/12 14:29:03;;;;;;;43.50;29.93;;;;;;;;;;5075909;28;20530;-92
2021/11/12 14:31:45;;;;;;;37.17;29.60;;;10.30;99.90;;;;;;5077335;28;20489;-90
2021/11/12 14:34:20;;;;;;;39.87;29.87;;;;;;;;;;5075659;28;20466;-91
2021/11/12 14:36:52;;;;;;;39.93;29.33;;;10.20;99.90;;;;;;5089002;28;20485;-90
2021/11/12 14:44:57;;;;;;;41.27;27.83;;;9.80;99.90;;;;;;5061113;28;21130;-93
2021/11/12 14:47:41;;;;;;;40.83;29.97;;;9.30;99.90;;;;;;5082996;28;20464;-94
2021/11/12 14:50:29;;;;;;;31.67;23.90;;;9.00;99.90;;;;;;5077489;28;20494;-92
2021/11/12 14:53:21;;;;;;;36.10;24.90;;;7.80;99.90;;;;;;5078403;28;20510;-95
2021/11/12 14:55:55;;;;;;;33.17;25.30;;;7.40;99.90;;;;;;5078768;28;20472;-92
2021/11/12 14:58:24;;;;;;;33.03;22.27;;;;;;;;;;5080751;28;20464;-91
2021/11/12 15:00:52;;;;;;;32.23;23.87;;;;;;;;;;5076370;28;20485;-93
2021/11/12 15:03:19;;;;;;;30.53;22.33;;;;;;;;;;5079808;28;20454;-92
2021/11/12 15:05:46;;;;;;;31.93;23.70;;;;;;;;;;5080184;28;20446;-89
2021/11/12 15:08:18;;;;;;;32.17;23.30;;;;;;;;;;5086758;28;20484;-92
2021/11/12 15:10:46;;;;;;;29.00;21.67;;;;;;;;;;5084388;28;20483;-94
2021/11/12 15:13:17;;;;;;;30.90;21.70;;;5.70;99.90;;;;;;5084942;28;20453;-93
2021/11/12 15:15:44;;;;;;;32.10;21.83;;;;;;;;;;5078808;28;20470;-91
2021/11/12 15:18:12;;;;;;;29.90;21.40;;;;;;;;;;5084897;28;20426;-92
2021/11/12 15:20:40;;;;;;;29.93;22.67;;;;;;;;;;5084229;28;20444;-92
2021/11/12 15:29:04;;;;;;;34.80;20.13;;;;;;;;;;5078585;28;20438;-92
2021/11/12 15:31:37;;;;;;;33.43;20.90;;;;;;;;;;5077235;28;20504;-93
2021/11/12 15:34:06;;;;;;;29.40;20.33;;;;;;;;;;5079441;28;20517;-93
2021/11/12 15:36:34;;;;;;;29.43;20.00;;;;;;;;;;5084035;28;20449;-92
2021/11/12 15:39:08;;;;;;;27.37;19.07;;;;;;;;;;5083583;28;20448;-91
2021/11/12 15:44:28;;;;;;;25.73;18.87;;;4.90;99.90;;;;;;5081352;28;20461;-92
2021/11/12 15:47:04;;;;;;;25.80;17.97;;;;;;;;;;5083446;28;20456;-92
2021/11/12 15:49:31;;;;;;;27.07;18.90;;;;;;;;;;5079468;28;20461;-92
2021/11/12 15:52:00;;;;;;;27.33;18.83;;;;;;;;;;5081567;28;20490;-93
2021/11/12 15:54:38;;;;;;;26.43;18.30;;;;;;;;;;5083060;22;20494;-91
2021/11/12 16:02:50;;;;;;;26.50;18.60;;;;;;;;;;5083503;28;20502;-91
2021/11/12 16:13:26;;;;;;;26.73;18.30;;;;;;;;;;5081684;28;20528;-92
2021/11/12 16:18:46;;;;;;;23.93;17.37;;;;;;;;;;5080969;28;20558;-92
2021/11/12 16:21:36;;;;;;;26.33;17.80;;;;;;;;;;5083182;28;20468;-93
2021/11/12 16:24:29;;;;;;;25.73;17.87;;;;;;;;;;5080923;28;20530;-90
2021/11/12 16:27:00;;;;;;;26.20;18.27;;;;;;;;;;5095794;22;20488;-91
2021/11/12 16:29:40;;;;;;;20.73;17.23;;;4.30;99.90;;;;;;5106456;28;20464;-93
2021/11/12 16:32:18;;;;;;;35.30;18.57;;;4.20;99.90;;;;;;5108535;28;20490;-93
2021/11/12 16:34:48;;;;;;;24.83;16.53;;;;;;;;;;5109633;28;20484;-92
2021/11/12 16:37:18;;;;;;;59.93;18.80;;;;;;;;;;5110995;28;20455;-91
2021/11/12 16:39:49;;;;;;;25.37;17.17;;;;;;;;;;5105951;28;20481;-92
2021/11/12 16:45:07;;;;;;;26.83;19.17;;;4.20;99.90;;;;;;5104331;28;20484;-91
2021/11/12 16:50:35;;;;;;;44.47;21.07;;;;;;;;;;5088585;28;20417;-91
2021/11/12 16:53:10;;;;;;;44.70;21.40;;;;;;;;;;5091366;28;20446;-93
2021/11/12 16:56:04;;;;;;;29.37;17.57;;;;;;;;;;5095980;22;20451;-92
2021/11/12 16:58:35;;;;;;;102.73;22.23;;;;;;;;;;5088215;28;20638;-93
2021/11/12 17:04:08;;;;;;;34.80;21.00;;;;;;;;;;5088394;28;20455;-91
2021/11/12 17:06:37;;;;;;;104.83;21.80;;;4.00;99.90;;;;;;5085317;28;20551;-92
2021/11/12 17:09:21;;;;;;;25.50;16.67;;;;;;;;;;5087781;28;20536;-93
2021/11/12 17:11:54;;;;;;;57.57;18.80;;;;;;;;;;5091940;28;20487;-92
2021/11/12 17:14:31;;;;;;;59.87;20.13;;;;;;;;;;5112486;22;20502;-91
2021/11/12 17:20:00;;;;;;;47.97;18.97;;;3.90;99.90;;;;;;5106360;28;20449;-91
2021/11/12 17:47:53;;;;;;;38.53;17.77;;;;;;;;;;5107523;28;20439;-91
2021/11/12 17:50:26;;;;;;;51.93;20.47;;;;;;;;;;5103287;28;20456;-92
2021/11/12 17:53:33;;;;;;;62.33;20.40;;;;;;;;;;5100427;28;20453;-93
2021/11/12 18:04:22;;;;;;;31.43;19.80;;;;;;;;;;5061041;28;20436;-92
2021/11/12 18:06:54;;;;;;;34.80;22.30;;;;;;;;;;5101765;28;20461;-93
2021/11/12 18:09:43;;;;;;;31.90;18.73;;;;;;;;;;5103852;28;20450;-92
2021/11/12 18:12:44;;;;;;;28.70;18.07;;;;;;;;;;5102393;28;20485;-92
2021/11/12 21:44:10;;;;;;;30.47;20.87;;;;;;;;;;5102084;28;20496;-93
2021/11/12 21:46:37;;;;;;;35.63;19.77;;;;;;;;;;5103099;28;20458;-92
2021/11/12 21:49:04;;;;;;;36.13;20.87;;;;;;;;;;5102294;28;20449;-92
2021/11/12 21:51:40;;;;;;;43.40;29.63;;;1.30;99.90;;;;;;5100631;28;20494;-94
2021/11/12 21:54:09;;;;;;;32.67;21.60;;;1.20;99.90;;;;;;5098653;28;20468;-93
2021/11/12 21:56:37;;;;;;;32.47;23.57;;;;;;;;;;5098703;28;20449;-91
2021/11/12 21:59:05;;;;;;;39.83;26.00;;;1.60;99.90;;;;;;5101423;28;20462;-93
2021/11/12 22:01:33;;;;;;;35.37;21.50;;;;;;;;;;5095196;28;20445;-93
2021/11/12 22:04:00;;;;;;;38.47;22.47;;;;;;;;;;5099979;28;20460;-92
2021/11/12 22:06:27;;;;;;;32.93;22.10;;;;;;;;;;5102157;28;20444;-92
2021/11/12 22:08:54;;;;;;;32.57;20.33;;;;;;;;;;5099642;28;20449;-92
2021/11/12 22:11:23;;;;;;;38.70;23.90;;;;;;;;;;5100943;28;20476;-92
2021/11/12 22:13:50;;;;;;;32.60;21.47;;;;;;;;;;5097988;28;20445;-93
2021/11/12 22:16:19;;;;;;;32.10;22.27;;;;;;;;;;5102519;28;20456;-93
2021/11/12 22:18:46;;;;;;;28.87;19.67;;;2.10;99.90;;;;;;5102350;28;20465;-91
2021/11/12 22:21:14;;;;;;;33.03;21.93;;;;;;;;;;5103100;28;20457;-93
2021/11/12 22:23:41;;;;;;;35.40;23.73;;;;;;;;;;5102382;28;20448;-92
2021/11/12 22:26:08;;;;;;;36.90;22.27;;;;;;;;;;5099914;28;20445;-92
2021/11/12 22:28:36;;;;;;;27.23;20.03;;;1.80;99.90;;;;;;5119519;28;20433;-93
2021/11/12 22:31:05;;;;;;;27.50;18.80;;;1.70;99.90;;;;;;5100499;28;20459;-93
2021/11/12 22:33:32;;;;;;;26.63;19.13;;;;;;;;;;5102891;28;20449;-92
2021/11/12 22:36:00;;;;;;;31.63;20.10;;;;;;;;;;5103870;28;20783;-92